Airfield :
LOGIN :

Register | Disclaimer

   EN    FR    IT 

 










Legend :    VFR   Marginal VFR   IFR   Intensive IFR   Very Intensive IFR
Visi :
Ceiling :
>= 8 km
>= 3000ft
5 to 8 km
1000 to 3000 ft
1500m to 5 km
500 to 1000 ft
800 to 1500m
200 to 500 ft
< 800m
< 200 ft
Symbols :   Thunderstorms  Fog  Heavy snow  Heavy precipitations  Wind > 20 kt
SIGMETs :     Misc.  Thunderstorms  Icing  Turbulence  Mountain Waves  Volcanic Ashes






- Airport Elevation : 1504 ft
- IATA code : PNA


LEPP - Noain Pamplona

CURRENT METAR :
  • 300100Z AUTO 15002KT CAVOK 13/11 Q1018

EXPIRED METARs :
  • 300030Z AUTO 00000KT CAVOK 14/11 Q1018
  • 300000Z AUTO 17002KT CAVOK 14/11 Q1018
  • 292330Z AUTO 34002KT CAVOK 15/11 Q1018
  • 292300Z AUTO 32004KT CAVOK 15/11 Q1018
  • 292230Z AUTO 29003KT CAVOK 15/11 Q1019
  • 292200Z 00000KT CAVOK 16/11 Q1019
  • 292130Z 00000KT CAVOK 16/11 Q1019
  • 292100Z 35005KT 320V050 CAVOK 17/11 Q1019
  • 292030Z 35006KT CAVOK 18/11 Q1019

TAF TAF LEPP
Valid from the 29 at 21:00 until the 30 at 21:00 UTC


292000Z 2921/3021 VRB03KT 9999 FEW045 TX16/3012Z TN10/3005Z
PROB40
TEMPO 3003/3016 BKN010
PROB30
TEMPO 3007/3014 3000 DZ BKN005
BECMG 3009/3011 34012KT



MET'MAP, your aeronautical weather chart ! - Copyright ORBIFLY December 2007 - Disclaimer

ORBIFLY MET'MAP TEAM :

Programming & Development : Alexandra Zaïnal
Original concept : Baudouin d'Aumeries
Technical & hardware support : Manuel Goepfert
Assistance : Marc-Olivier Méhu




SOURCES & CREDITS :

   NOAA